Time;durP1;ratioP1;P1;durP2;ratioP2;P2;SDS_P1;SDS_P2;PMS_P1;PMS_P2;Temp;Humidity;BMP_temperature;BMP_pressure;BME280_temperature;BME280_humidity;BME280_pressure;Samples;Min_cycle;Max_cycle;Signal;HPM_P1;HPM_P2
2021/06/17 00:00:27;;;;;;;11.00;7.53;;;16.00;99.90;;;;;;5112858;28;20203;-84
2021/06/17 00:02:56;;;;;;;14.02;6.85;;;15.70;99.90;;;;;;5113713;28;20719;-84
2021/06/17 00:05:28;;;;;;;17.58;7.72;;;15.70;99.90;;;;;;5096382;28;20649;-84
2021/06/17 00:07:53;;;;;;;13.65;7.10;;;15.70;99.90;;;;;;5113886;28;20297;-84
2021/06/17 00:10:25;;;;;;;10.07;6.78;;;15.60;99.90;;;;;;5112823;28;20266;-84
2021/06/17 00:12:51;;;;;;;14.93;7.32;;;15.90;99.90;;;;;;5113350;28;20229;-84
2021/06/17 00:15:18;;;;;;;8.82;6.60;;;15.90;99.90;;;;;;5113944;28;20253;-84
2021/06/17 00:17:44;;;;;;;9.15;6.25;;;15.50;99.90;;;;;;5113240;28;20634;-84
2021/06/17 00:20:11;;;;;;;9.35;6.30;;;15.50;99.90;;;;;;5113591;28;20240;-84
2021/06/17 00:22:37;;;;;;;15.30;6.18;;;15.70;99.90;;;;;;5114962;28;20244;-84
2021/06/17 00:25:03;;;;;;;15.90;6.53;;;15.00;99.90;;;;;;5099863;28;20174;-85
2021/06/17 00:27:30;;;;;;;13.15;6.28;;;;;;;;;;5116545;28;20209;-84
2021/06/17 00:29:55;;;;;;;10.35;6.30;;;15.30;99.90;;;;;;5116347;28;20189;-84
2021/06/17 00:32:21;;;;;;;13.10;6.32;;;;;;;;;;5118119;28;20218;-84
2021/06/17 00:34:47;;;;;;;11.10;6.93;;;15.30;99.90;;;;;;5117659;27;20180;-84
2021/06/17 00:37:13;;;;;;;13.02;7.22;;;14.90;99.90;;;;;;5117925;28;20166;-84
2021/06/17 00:39:40;;;;;;;14.48;7.35;;;;;;;;;;5117525;28;20535;-83
2021/06/17 00:42:07;;;;;;;13.07;7.25;;;14.60;99.90;;;;;;5116661;28;20185;-84
2021/06/17 00:44:33;;;;;;;13.45;7.47;;;15.00;99.90;;;;;;5116048;28;20185;-83
2021/06/17 00:46:59;;;;;;;14.30;7.85;;;15.00;99.90;;;;;;5116109;28;20201;-84
2021/06/17 00:49:25;;;;;;;9.48;7.32;;;;;;;;;;5116292;28;20242;-84
2021/06/17 00:51:51;;;;;;;12.80;7.85;;;14.60;99.90;;;;;;5117203;28;20173;-84
2021/06/17 00:54:32;;;;;;;13.55;8.55;;;14.80;99.90;;;;;;5099401;28;20181;-84
2021/06/17 00:57:05;;;;;;;13.07;7.80;;;14.90;99.90;;;;;;5116380;28;20177;-84
2021/06/17 00:59:32;;;;;;;12.20;8.25;;;14.60;99.90;;;;;;5117464;28;20193;-84
2021/06/17 01:01:58;;;;;;;13.98;7.72;;;14.70;99.90;;;;;;5117414;28;20178;-83
2021/06/17 01:04:25;;;;;;;16.25;8.15;;;14.40;99.90;;;;;;5117183;28;20261;-84
2021/06/17 01:06:52;;;;;;;12.40;8.13;;;14.80;99.90;;;;;;5116981;28;20246;-84
2021/06/17 01:09:28;;;;;;;11.07;7.78;;;14.60;99.90;;;;;;5099011;28;20601;-84
2021/06/17 01:12:02;;;;;;;12.45;8.23;;;14.30;99.90;;;;;;5116364;28;20183;-84
2021/06/17 01:14:37;;;;;;;13.63;7.22;;;13.80;99.90;;;;;;5116916;27;20166;-84
2021/06/17 01:17:10;;;;;;;13.35;7.93;;;14.50;99.90;;;;;;5117306;28;20181;-84
2021/06/17 01:19:51;;;;;;;15.07;8.77;;;14.60;99.90;;;;;;5116996;28;20162;-83
2021/06/17 01:22:39;;;;;;;12.68;8.20;;;14.40;99.90;;;;;;5115856;28;20211;-84
2021/06/17 01:25:04;;;;;;;14.52;8.15;;;14.70;99.90;;;;;;5115368;28;20174;-84
2021/06/17 01:28:05;;;;;;;13.23;7.55;;;14.10;99.90;;;;;;5116911;28;20208;-84
2021/06/17 01:30:36;;;;;;;14.50;7.72;;;14.40;99.90;;;;;;5116777;27;20174;-84
2021/06/17 01:33:04;;;;;;;9.93;7.97;;;14.30;99.90;;;;;;5115836;28;20159;-84
2021/06/17 01:35:38;;;;;;;14.50;8.50;;;14.10;99.90;;;;;;5116825;28;20170;-84
2021/06/17 01:38:06;;;;;;;16.83;7.90;;;14.20;99.90;;;;;;5115621;28;20180;-84
2021/06/17 01:40:34;;;;;;;12.65;8.18;;;14.00;99.90;;;;;;5115410;28;20674;-84
2021/06/17 01:43:01;;;;;;;17.75;8.98;;;14.20;99.90;;;;;;5116179;28;20223;-84
2021/06/17 01:45:28;;;;;;;15.13;8.38;;;14.20;99.90;;;;;;5116917;28;20184;-83
2021/06/17 01:47:56;;;;;;;17.38;7.72;;;14.20;99.90;;;;;;5116635;28;20554;-84
2021/06/17 01:50:27;;;;;;;13.20;8.18;;;14.00;99.90;;;;;;5098435;28;20280;-84
2021/06/17 01:52:54;;;;;;;13.90;8.00;;;13.80;99.90;;;;;;5114872;28;20293;-83
2021/06/17 01:55:22;;;;;;;10.27;7.45;;;14.40;99.90;;;;;;5114932;28;20178;-83
2021/06/17 01:57:49;;;;;;;14.73;7.82;;;14.10;99.90;;;;;;5115700;28;20261;-83
2021/06/17 02:00:16;;;;;;;14.13;8.68;;;13.90;99.90;;;;;;5116238;28;20178;-83
2021/06/17 02:02:42;;;;;;;11.10;7.68;;;13.80;99.90;;;;;;5115475;28;20606;-83
2021/06/17 02:05:10;;;;;;;11.05;7.28;;;14.30;99.90;;;;;;5116016;28;20198;-83
2021/06/17 02:07:41;;;;;;;11.05;7.97;;;14.00;99.90;;;;;;5114813;28;20231;-83
2021/06/17 02:10:08;;;;;;;15.27;8.02;;;14.00;99.90;;;;;;5114686;28;20181;-83
2021/06/17 02:12:34;;;;;;;19.58;8.07;;;14.00;99.90;;;;;;5115998;28;20238;-83
2021/06/17 02:15:00;;;;;;;15.90;8.07;;;14.00;99.90;;;;;;5114371;28;20170;-83
2021/06/17 02:17:27;;;;;;;12.05;8.00;;;13.80;99.90;;;;;;5114399;28;20545;-84
2021/06/17 02:19:53;;;;;;;11.38;8.18;;;14.30;99.90;;;;;;5115276;28;20178;-84
2021/06/17 02:22:20;;;;;;;16.35;8.63;;;13.70;99.90;;;;;;5115883;28;20270;-83
2021/06/17 02:24:51;;;;;;;15.38;7.95;;;13.90;99.90;;;;;;5115414;28;20166;-83
2021/06/17 02:27:25;;;;;;;26.33;9.02;;;13.90;99.90;;;;;;5115797;28;20198;-83
2021/06/17 02:29:50;;;;;;;14.55;8.23;;;13.50;99.90;;;;;;5115377;28;20166;-83
2021/06/17 02:32:19;;;;;;;15.82;8.85;;;13.90;99.90;;;;;;5115880;28;20174;-83
2021/06/17 02:34:49;;;;;;;14.98;7.82;;;14.30;99.90;;;;;;5114940;28;20206;-83
2021/06/17 02:37:17;;;;;;;18.35;8.63;;;13.70;99.90;;;;;;5115383;28;20209;-83
2021/06/17 02:39:46;;;;;;;16.05;8.65;;;13.50;99.90;;;;;;5114834;28;20515;-83
2021/06/17 02:42:14;;;;;;;18.73;8.73;;;13.80;99.90;;;;;;5115550;28;20184;-83
2021/06/17 02:44:43;;;;;;;15.75;8.93;;;13.90;99.90;;;;;;5115057;28;20219;-83
2021/06/17 02:47:09;;;;;;;23.92;8.60;;;13.80;99.90;;;;;;5115296;28;20401;-84
2021/06/17 02:49:37;;;;;;;20.45;9.27;;;13.80;99.90;;;;;;5114173;28;20254;-84
2021/06/17 02:52:03;;;;;;;20.02;8.80;;;13.90;99.90;;;;;;5114601;28;20177;-84
2021/06/17 02:54:29;;;;;;;17.13;9.65;;;13.80;99.90;;;;;;5115592;28;20178;-83
2021/06/17 02:56:56;;;;;;;16.42;8.65;;;;;;;;;;5114759;28;20205;-83
2021/06/17 02:59:56;;;;;;;22.95;8.07;;;13.60;99.90;;;;;;5114029;28;20178;-84
2021/06/17 03:02:47;;;;;;;18.23;9.02;;;13.90;99.90;;;;;;5115358;28;20553;-84
2021/06/17 03:05:34;;;;;;;13.07;7.65;;;13.70;99.90;;;;;;5062190;28;20185;-83
2021/06/17 03:08:13;;;;;;;21.88;8.63;;;14.20;99.90;;;;;;5098891;28;20232;-83
2021/06/17 03:10:39;;;;;;;15.32;8.38;;;14.40;99.90;;;;;;5113700;28;20312;-84
2021/06/17 03:13:06;;;;;;;20.45;8.35;;;13.90;99.90;;;;;;5114237;28;20267;-83
2021/06/17 03:15:39;;;;;;;12.80;8.65;;;13.80;99.90;;;;;;5115583;28;20180;-84
2021/06/17 03:18:07;;;;;;;15.57;8.38;;;14.50;99.90;;;;;;5120217;28;20178;-83
2021/06/17 03:20:34;;;;;;;19.92;8.50;;;14.00;99.90;;;;;;5120018;28;20170;-84
2021/06/17 03:23:05;;;;;;;17.83;8.60;;;14.30;99.90;;;;;;5117339;28;20185;-86
2021/06/17 03:25:34;;;;;;;13.30;8.65;;;14.70;99.90;;;;;;5121397;28;20170;-83
2021/06/17 03:28:01;;;;;;;12.50;8.80;;;14.00;99.90;;;;;;5116993;28;20687;-84
2021/06/17 03:30:29;;;;;;;13.32;8.88;;;14.40;99.90;;;;;;5113226;28;20180;-84
2021/06/17 03:32:59;;;;;;;20.40;8.82;;;14.30;99.90;;;;;;5114030;28;20181;-84
2021/06/17 03:35:28;;;;;;;19.40;9.02;;;;;;;;;;5113012;28;20222;-85
2021/06/17 03:37:56;;;;;;;15.00;8.57;;;15.10;99.90;;;;;;5112827;28;20195;-84
2021/06/17 03:40:23;;;;;;;16.52;8.80;;;14.70;99.90;;;;;;5114581;28;20182;-84
2021/06/17 03:42:51;;;;;;;16.27;7.82;;;14.80;99.90;;;;;;5113664;28;20272;-84
2021/06/17 03:45:19;;;;;;;16.40;8.25;;;14.80;99.90;;;;;;5112847;28;20638;-83
2021/06/17 03:47:47;;;;;;;11.98;7.40;;;15.30;99.90;;;;;;5095637;28;20202;-84
2021/06/17 03:50:14;;;;;;;10.68;7.47;;;14.70;99.90;;;;;;5113214;28;20180;-82
2021/06/17 03:52:45;;;;;;;11.88;6.22;;;14.80;99.90;;;;;;5113994;28;20253;-82
2021/06/17 03:55:16;;;;;;;10.07;5.75;;;15.50;99.90;;;;;;5113836;28;20198;-83
2021/06/17 03:57:43;;;;;;;7.20;5.55;;;15.00;99.90;;;;;;5112312;28;20588;-83
2021/06/17 04:00:10;;;;;;;11.23;5.88;;;15.30;99.90;;;;;;5112161;28;20532;-83
2021/06/17 04:02:37;;;;;;;12.32;6.03;;;15.40;99.90;;;;;;5112065;28;20238;-83
2021/06/17 04:05:03;;;;;;;9.30;6.20;;;15.90;99.90;;;;;;5113243;28;20642;-83
2021/06/17 04:07:30;;;;;;;11.18;5.85;;;15.40;99.90;;;;;;5112571;28;20206;-83
2021/06/17 04:09:59;;;;;;;8.25;5.68;;;15.80;99.90;;;;;;5113187;28;20184;-84
2021/06/17 04:12:29;;;;;;;14.18;5.78;;;15.60;99.90;;;;;;5113316;28;20237;-83
2021/06/17 04:14:58;;;;;;;10.02;5.82;;;15.60;99.90;;;;;;5099652;28;20375;-83
2021/06/17 04:17:28;;;;;;;10.15;5.30;;;15.90;99.90;;;;;;5111758;28;20278;-83
2021/06/17 04:19:56;;;;;;;6.05;5.15;;;16.30;99.90;;;;;;5107819;28;20648;-84
2021/06/17 04:22:23;;;;;;;12.98;5.50;;;16.20;99.90;;;;;;5111334;28;20200;-83
2021/06/17 04:24:52;;;;;;;8.30;4.90;;;16.50;99.90;;;;;;5106752;28;20186;-83
2021/06/17 04:27:22;;;;;;;10.98;5.47;;;17.00;99.90;;;;;;5104868;28;20285;-82
2021/06/17 04:29:51;;;;;;;9.23;5.30;;;16.70;99.90;;;;;;5090344;28;20182;-85
2021/06/17 04:32:16;;;;;;;13.88;5.15;;;16.90;99.90;;;;;;5095870;28;20201;-84
2021/06/17 04:34:44;;;;;;;12.43;5.63;;;17.00;99.90;;;;;;5098972;28;20222;-84
2021/06/17 04:37:14;;;;;;;12.52;5.40;;;17.00;99.90;;;;;;5093067;28;20182;-83
2021/06/17 04:39:40;;;;;;;18.15;6.90;;;17.00;99.90;;;;;;5106942;28;20294;-84
2021/06/17 04:42:08;;;;;;;9.90;4.97;;;17.30;99.90;;;;;;5096015;28;20187;-83
2021/06/17 04:44:38;;;;;;;6.90;5.03;;;17.20;99.90;;;;;;5111776;28;20201;-84
2021/06/17 04:47:05;;;;;;;12.38;4.80;;;17.50;99.90;;;;;;5110862;28;20677;-83
2021/06/17 04:49:34;;;;;;;11.90;4.68;;;17.60;99.90;;;;;;5109951;28;20204;-83
2021/06/17 04:52:02;;;;;;;9.35;4.90;;;17.70;99.90;;;;;;5109780;28;20178;-85
2021/06/17 04:54:28;;;;;;;6.55;4.13;;;;;;;;;;5102774;28;20223;-83
2021/06/17 04:56:54;;;;;;;6.57;3.58;;;18.10;99.90;;;;;;5109459;28;20182;-83
2021/06/17 04:59:20;;;;;;;7.55;3.80;;;;;;;;;;5113423;28;20661;-82
2021/06/17 05:01:45;;;;;;;9.10;3.83;;;18.30;99.90;;;;;;5109611;28;20212;-85
2021/06/17 05:04:11;;;;;;;6.78;3.30;;;;;;;;;;5110483;28;20206;-83
2021/06/17 05:06:39;;;;;;;5.25;3.60;;;18.40;99.90;;;;;;5092765;28;20170;-83
2021/06/17 05:11:51;;;;;;;4.32;2.95;;;18.90;99.90;;;;;;5116773;28;20185;-82
2021/06/17 05:14:18;;;;;;;5.55;3.05;;;18.60;99.90;;;;;;5114000;28;20340;-83
2021/06/17 05:16:44;;;;;;;5.50;3.40;;;18.40;99.90;;;;;;5115866;28;20702;-83
2021/06/17 05:19:09;;;;;;;7.85;3.67;;;;;;;;;;5117117;28;20256;-83
2021/06/17 05:21:36;;;;;;;4.70;2.78;;;;;;;;;;5116432;28;20218;-83
2021/06/17 05:24:02;;;;;;;4.65;2.35;;;18.80;99.90;;;;;;5116013;28;20181;-83
2021/06/17 05:26:28;;;;;;;6.38;2.75;;;19.10;99.90;;;;;;5115030;28;20178;-83
2021/06/17 05:28:55;;;;;;;9.43;2.28;;;;;;;;;;5116095;28;20206;-83
2021/06/17 05:31:23;;;;;;;4.20;2.33;;;19.20;99.90;;;;;;5114020;28;20189;-83
2021/06/17 05:33:49;;;;;;;7.28;2.47;;;;;;;;;;5115963;28;20177;-84
2021/06/17 05:36:15;;;;;;;7.40;2.30;;;;;;;;;;5115207;28;20178;-83
2021/06/17 05:38:42;;;;;;;9.68;2.10;;;19.80;99.90;;;;;;5116032;28;20318;-82
2021/06/17 05:41:08;;;;;;;4.97;2.30;;;;;;;;;;5114045;28;20180;-82
2021/06/17 05:43:34;;;;;;;8.63;2.40;;;19.90;99.90;;;;;;5115473;27;20178;-82
2021/06/17 05:46:00;;;;;;;8.93;2.33;;;20.50;99.90;;;;;;5114643;28;20230;-82
2021/06/17 05:48:28;;;;;;;6.30;2.47;;;19.90;99.90;;;;;;5115696;28;20244;-83
2021/06/17 05:50:54;;;;;;;5.18;2.40;;;20.10;99.90;;;;;;5114662;28;20188;-83
2021/06/17 05:53:20;;;;;;;8.30;2.47;;;20.70;99.90;;;;;;5114328;28;20181;-84
2021/06/17 05:55:46;;;;;;;3.92;2.85;;;;;;;;;;5115662;28;20264;-82
2021/06/17 05:58:12;;;;;;;7.63;2.83;;;20.60;99.90;;;;;;5113497;28;20224;-82
2021/06/17 06:00:39;;;;;;;6.93;2.53;;;20.50;99.90;;;;;;5113911;28;20186;-83
2021/06/17 06:03:05;;;;;;;5.03;2.33;;;21.00;99.90;;;;;;5114628;28;20182;-83
2021/06/17 06:05:31;;;;;;;4.35;2.35;;;;;;;;;;5114730;28;20178;-83
2021/06/17 06:08:02;;;;;;;5.60;1.90;;;21.20;99.90;;;;;;5114722;28;20198;-81
2021/06/17 06:10:29;;;;;;;6.18;2.03;;;21.00;99.90;;;;;;5115561;28;20166;-82
2021/06/17 06:12:55;;;;;;;7.47;2.40;;;21.10;99.90;;;;;;5114874;28;20771;-82
2021/06/17 06:15:21;;;;;;;3.53;1.90;;;21.50;99.90;;;;;;5114857;28;20174;-82
2021/06/17 06:17:47;;;;;;;3.92;2.28;;;;;;;;;;5114848;28;20182;-82
2021/06/17 06:20:13;;;;;;;9.07;3.13;;;21.10;99.90;;;;;;5114540;28;20178;-83
2021/06/17 06:22:41;;;;;;;4.60;2.33;;;21.30;99.90;;;;;;5113813;28;20607;-82
2021/06/17 06:25:07;;;;;;;7.07;1.90;;;21.10;99.90;;;;;;5114533;28;20176;-83
2021/06/17 06:27:33;;;;;;;4.72;2.03;;;;;;;;;;5113609;28;20275;-82
2021/06/17 06:30:02;;;;;;;3.95;2.10;;;;;;;;;;5113592;28;20631;-82
2021/06/17 06:32:28;;;;;;;5.25;2.58;;;;;;;;;;5093026;28;20716;-82
2021/06/17 06:34:55;;;;;;;5.90;2.63;;;;;;;;;;5113295;28;20182;-82
2021/06/17 06:37:20;;;;;;;4.57;1.92;;;21.60;99.90;;;;;;5111804;28;20764;-83
2021/06/17 06:39:46;;;;;;;4.85;1.92;;;;;;;;;;5112281;28;20209;-82
2021/06/17 06:42:12;;;;;;;5.10;2.22;;;21.90;99.90;;;;;;5110756;28;20182;-83
2021/06/17 06:44:38;;;;;;;5.18;2.15;;;;;;;;;;5113088;28;20185;-83
2021/06/17 06:47:04;;;;;;;3.65;1.98;;;;;;;;;;5113691;28;20208;-83
2021/06/17 06:49:30;;;;;;;4.63;1.70;;;;;;;;;;5113529;28;20182;-82
2021/06/17 06:51:56;;;;;;;15.82;7.25;;;;;;;;;;5110863;28;20242;-83
2021/06/17 06:54:22;;;;;;;5.55;2.00;;;;;;;;;;5111717;27;20607;-82
2021/06/17 06:56:48;;;;;;;5.53;1.92;;;;;;;;;;5111876;28;20170;-83
2021/06/17 06:59:15;;;;;;;8.13;2.33;;;;;;;;;;5111930;28;20204;-81
2021/06/17 07:01:41;;;;;;;13.27;2.55;;;;;;;;;;5112516;28;20765;-83
2021/06/17 07:04:08;;;;;;;5.78;1.92;;;;;;;;;;5111905;28;20177;-82
2021/06/17 07:06:34;;;;;;;6.60;1.88;;;;;;;;;;5113640;28;20185;-81
2021/06/17 07:09:00;;;;;;;4.63;1.92;;;;;;;;;;5114103;28;20221;-82
2021/06/17 07:11:26;;;;;;;7.18;3.05;;;;;;;;;;5113796;28;20319;-82
2021/06/17 07:13:52;;;;;;;6.35;1.50;;;;;;;;;;5113676;28;20754;-81
2021/06/17 07:16:18;;;;;;;5.13;1.70;;;22.90;99.90;;;;;;5113628;28;20192;-82
2021/06/17 07:18:43;;;;;;;9.30;5.05;;;22.70;99.90;;;;;;5114110;28;20606;-82
2021/06/17 07:21:11;;;;;;;6.22;3.03;;;;;;;;;;5113910;28;20642;-81
2021/06/17 07:23:37;;;;;;;4.53;1.70;;;;;;;;;;5112762;28;20192;-82
2021/06/17 07:26:03;;;;;;;8.40;1.52;;;;;;;;;;5113954;27;20182;-81
2021/06/17 07:28:29;;;;;;;3.03;1.40;;;24.00;99.90;;;;;;5113163;28;20205;-81
2021/06/17 07:30:56;;;;;;;4.20;1.73;;;;;;;;;;5112927;28;20181;-82
2021/06/17 07:33:22;;;;;;;2.13;1.75;;;;;;;;;;5111696;28;20202;-82
2021/06/17 07:35:48;;;;;;;6.57;1.80;;;;;;;;;;5112047;28;20212;-82
2021/06/17 07:38:14;;;;;;;3.10;1.92;;;;;;;;;;5112077;28;20642;-82
2021/06/17 07:40:42;;;;;;;2.15;1.65;;;;;;;;;;5112287;28;20269;-82
2021/06/17 07:43:08;;;;;;;2.95;1.92;;;;;;;;;;5112165;28;20235;-84
2021/06/17 07:45:35;;;;;;;5.60;2.13;;;23.80;93.50;;;;;;5112060;28;20272;-82
2021/06/17 07:48:01;;;;;;;9.88;2.80;;;;;;;;;;5114127;28;20201;-81
2021/06/17 07:50:27;;;;;;;5.38;1.80;;;23.90;97.10;;;;;;5113916;28;20229;-82
2021/06/17 07:52:53;;;;;;;5.30;2.33;;;;;;;;;;5113789;28;20177;-82
2021/06/17 07:55:19;;;;;;;3.65;1.70;;;;;;;;;;5113819;28;20178;-82
2021/06/17 07:57:45;;;;;;;6.22;2.10;;;;;;;;;;5114069;28;20213;-82
2021/06/17 08:00:11;;;;;;;4.38;2.72;;;24.40;96.50;;;;;;5095812;28;20189;-82
2021/06/17 08:02:37;;;;;;;4.30;1.95;;;;;;;;;;5113693;28;20260;-83
2021/06/17 08:05:03;;;;;;;5.38;2.15;;;24.60;93.80;;;;;;5113931;28;20611;-82
2021/06/17 08:07:29;;;;;;;3.42;1.92;;;;;;;;;;5113357;28;20209;-82
2021/06/17 08:09:55;;;;;;;3.10;1.75;;;;;;;;;;5113790;28;20186;-82
2021/06/17 08:12:26;;;;;;;3.78;1.70;;;;;;;;;;5113357;28;20225;-82
2021/06/17 08:14:52;;;;;;;7.53;2.10;;;;;;;;;;5095868;28;20210;-82
2021/06/17 08:17:18;;;;;;;3.65;1.80;;;;;;;;;;5113531;28;20181;-82
2021/06/17 08:19:44;;;;;;;4.90;2.05;;;;;;;;;;5113408;28;20590;-82
2021/06/17 08:22:11;;;;;;;4.00;2.03;;;;;;;;;;5113420;28;20207;-83
2021/06/17 08:24:39;;;;;;;2.95;2.33;;;24.60;80.30;;;;;;5113443;28;20173;-82
2021/06/17 08:27:06;;;;;;;4.70;2.20;;;25.00;90.50;;;;;;5113519;28;20255;-82
2021/06/17 08:29:32;;;;;;;4.75;1.80;;;;;;;;;;5113383;28;20182;-82
2021/06/17 08:31:58;;;;;;;7.32;2.20;;;;;;;;;;5111890;28;20182;-82
2021/06/17 08:34:24;;;;;;;3.90;2.00;;;24.70;89.20;;;;;;5113346;28;20177;-82
2021/06/17 08:36:51;;;;;;;4.85;2.30;;;24.40;90.00;;;;;;5111509;28;20186;-82
2021/06/17 08:39:18;;;;;;;3.95;1.90;;;;;;;;;;5111891;28;20178;-82
2021/06/17 08:41:44;;;;;;;7.03;2.33;;;;;;;;;;5110393;28;20207;-81
2021/06/17 08:44:10;;;;;;;4.40;2.05;;;;;;;;;;5115243;28;20849;-82
2021/06/17 08:46:37;;;;;;;5.70;2.28;;;24.60;81.40;;;;;;5114340;28;20223;-82
2021/06/17 08:49:03;;;;;;;2.60;2.10;;;;;;;;;;5116022;28;20286;-82
2021/06/17 08:51:31;;;;;;;2.60;1.63;;;24.80;80.80;;;;;;5116555;28;20226;-82
2021/06/17 08:53:58;;;;;;;3.63;1.98;;;;;;;;;;5117460;28;20183;-83
2021/06/17 08:56:25;;;;;;;2.78;1.80;;;;;;;;;;5115703;28;20201;-82
2021/06/17 08:58:53;;;;;;;4.93;2.10;;;25.30;79.20;;;;;;5117327;28;20201;-83
2021/06/17 09:01:21;;;;;;;5.47;2.38;;;;;;;;;;5116860;28;20169;-82
2021/06/17 09:03:47;;;;;;;2.30;1.65;;;;;;;;;;5116835;28;20619;-83
2021/06/17 09:06:13;;;;;;;2.50;1.58;;;;;;;;;;5117027;28;20205;-83
2021/06/17 09:08:39;;;;;;;8.60;2.30;;;;;;;;;;5116731;27;20196;-82
2021/06/17 09:11:26;;;;;;;1.90;1.70;;;25.30;79.40;;;;;;5117179;28;20265;-82
2021/06/17 09:13:52;;;;;;;6.70;1.60;;;;;;;;;;5116778;28;20323;-82
2021/06/17 09:16:28;;;;;;;3.47;1.60;;;25.70;84.30;;;;;;5116555;28;20170;-82
2021/06/17 09:18:54;;;;;;;3.13;1.60;;;;;;;;;;5115617;28;20166;-82
2021/06/17 09:21:20;;;;;;;5.63;2.38;;;;;;;;;;5114602;28;20528;-83
2021/06/17 09:23:49;;;;;;;6.30;1.80;;;25.90;71.20;;;;;;5114557;28;20204;-83
2021/06/17 09:26:21;;;;;;;3.97;1.40;;;25.90;70.20;;;;;;5114809;28;20227;-84
2021/06/17 09:29:00;;;;;;;4.05;1.30;;;25.80;83.60;;;;;;5114473;28;20210;-84
2021/06/17 09:31:41;;;;;;;3.10;1.30;;;25.90;72.30;;;;;;5114810;28;20162;-84
2021/06/17 09:34:07;;;;;;;7.25;1.42;;;26.10;67.90;;;;;;5116089;28;20161;-83
2021/06/17 09:36:36;;;;;;;3.25;1.40;;;26.00;68.20;;;;;;5115490;28;20185;-83
2021/06/17 09:39:09;;;;;;;2.60;1.30;;;25.90;71.30;;;;;;5115380;28;20272;-84
2021/06/17 09:41:51;;;;;;;1.23;1.10;;;25.90;79.70;;;;;;5115412;28;20171;-83
2021/06/17 09:44:39;;;;;;;5.47;1.60;;;26.60;77.90;;;;;;5115741;28;20162;-83
2021/06/17 09:47:18;;;;;;;3.28;1.05;;;26.70;78.00;;;;;;5115575;28;20197;-84
2021/06/17 09:49:45;;;;;;;6.07;1.20;;;26.40;65.10;;;;;;5115145;28;20177;-83
2021/06/17 09:52:13;;;;;;;1.98;1.00;;;26.40;62.70;;;;;;5115506;28;20213;-84
2021/06/17 09:54:40;;;;;;;3.50;1.42;;;;;;;;;;5113909;28;20286;-85
2021/06/17 09:57:08;;;;;;;3.55;1.30;;;26.30;72.50;;;;;;5115304;28;20216;-83
2021/06/17 09:59:51;;;;;;;2.30;1.10;;;27.10;71.80;;;;;;5114896;28;20205;-81
2021/06/17 10:02:37;;;;;;;3.25;1.15;;;26.80;59.60;;;;;;5113230;28;20169;-81
2021/06/17 10:05:23;;;;;;;3.08;1.15;;;26.90;70.20;;;;;;5114362;28;20174;-81
2021/06/17 10:07:50;;;;;;;2.63;1.00;;;26.90;62.80;;;;;;5112593;28;20186;-81
2021/06/17 10:10:20;;;;;;;1.00;0.90;;;27.00;59.20;;;;;;5114556;28;20193;-81
2021/06/17 10:12:46;;;;;;;3.80;1.30;;;;;;;;;;5114344;28;20221;-81
2021/06/17 10:15:12;;;;;;;3.45;1.27;;;26.60;70.20;;;;;;5114446;28;20188;-81
2021/06/17 10:17:38;;;;;;;1.55;1.10;;;;;;;;;;5114471;28;20182;-82
2021/06/17 10:20:09;;;;;;;3.25;1.15;;;27.10;66.30;;;;;;5114759;28;20170;-83
2021/06/17 10:22:37;;;;;;;5.60;1.40;;;27.00;62.20;;;;;;5114389;28;20170;-82
2021/06/17 10:25:22;;;;;;;1.67;1.30;;;27.10;61.60;;;;;;5114578;28;20178;-84
2021/06/17 10:27:49;;;;;;;2.35;1.10;;;27.30;67.00;;;;;;5113457;28;20190;-82
2021/06/17 10:30:15;;;;;;;3.22;1.48;;;26.90;66.20;;;;;;5115639;28;20182;-83
2021/06/17 10:32:45;;;;;;;3.38;1.60;;;27.00;67.20;;;;;;5113653;28;20180;-82
2021/06/17 10:35:24;;;;;;;4.30;1.33;;;27.40;61.20;;;;;;5115010;28;20193;-82
2021/06/17 10:37:52;;;;;;;6.60;1.63;;;26.90;68.20;;;;;;5110246;28;20266;-83
2021/06/17 10:40:25;;;;;;;6.72;1.33;;;27.10;66.10;;;;;;5114927;28;20170;-82
2021/06/17 10:42:52;;;;;;;1.20;1.10;;;27.30;68.00;;;;;;5113492;28;20178;-82
2021/06/17 10:45:32;;;;;;;1.40;1.20;;;27.60;59.90;;;;;;5114405;28;20562;-82
2021/06/17 10:48:00;;;;;;;5.47;1.60;;;27.90;59.50;;;;;;5114236;28;20201;-82
2021/06/17 10:50:39;;;;;;;4.78;1.70;;;28.60;66.30;;;;;;5114488;28;20236;-81
2021/06/17 10:53:39;;;;;;;3.92;1.20;;;27.90;62.80;;;;;;5112664;28;20177;-82
2021/06/17 10:56:16;;;;;;;6.10;1.52;;;28.40;63.50;;;;;;5112941;28;20170;-83
2021/06/17 10:58:43;;;;;;;4.40;3.20;;;;;;;;;;5112720;28;20223;-83
2021/06/17 11:01:47;;;;;;;2.17;1.15;;;28.20;62.20;;;;;;5112944;28;20257;-82
2021/06/17 11:04:44;;;;;;;1.80;1.10;;;27.80;53.70;;;;;;5029461;28;20283;-82
2021/06/17 11:07:11;;;;;;;4.82;1.75;;;;;;;;;;5012803;28;20216;-82
2021/06/17 11:09:45;;;;;;;1.83;1.45;;;28.20;62.30;;;;;;5086413;28;20650;-81
2021/06/17 11:12:17;;;;;;;1.75;1.15;;;28.70;65.60;;;;;;5113161;28;20165;-81
2021/06/17 11:14:49;;;;;;;1.98;1.20;;;27.70;63.10;;;;;;5113046;28;20237;-82
2021/06/17 11:17:36;;;;;;;4.35;1.13;;;27.70;61.80;;;;;;5114446;28;20650;-82
2021/06/17 11:20:10;;;;;;;4.00;1.33;;;28.20;64.80;;;;;;5114152;28;20641;-82
2021/06/17 11:22:36;;;;;;;2.35;1.35;;;;;;;;;;5114533;28;20201;-82
2021/06/17 11:25:36;;;;;;;3.40;1.65;;;28.50;63.00;;;;;;5114057;28;20261;-82
2021/06/17 11:28:14;;;;;;;1.55;1.20;;;28.20;60.10;;;;;;5070364;28;20232;-81
2021/06/17 11:30:43;;;;;;;2.25;1.42;;;;;;;;;;5114400;28;20707;-82
2021/06/17 11:33:14;;;;;;;6.22;1.55;;;28.10;63.60;;;;;;5114167;28;20679;-82
2021/06/17 11:36:04;;;;;;;3.65;1.33;;;28.20;56.50;;;;;;5113054;28;20603;-82
2021/06/17 11:38:35;;;;;;;2.22;1.30;;;28.10;63.60;;;;;;5114309;28;20231;-81
2021/06/17 11:41:22;;;;;;;2.80;1.55;;;27.40;62.70;;;;;;5114023;28;20253;-82
2021/06/17 11:44:01;;;;;;;5.63;1.33;;;27.60;62.20;;;;;;5113349;28;20170;-83
2021/06/17 11:46:36;;;;;;;3.22;1.70;;;27.70;67.40;;;;;;5109965;28;20560;-82
2021/06/17 11:49:08;;;;;;;2.25;1.58;;;28.10;55.60;;;;;;5112925;28;20197;-82
2021/06/17 11:51:40;;;;;;;5.63;1.70;;;27.80;64.50;;;;;;5113279;28;20168;-83
2021/06/17 11:54:07;;;;;;;3.00;1.50;;;;;;;;;;5110191;28;20248;-82
2021/06/17 11:56:33;;;;;;;3.40;1.50;;;;;;;;;;5113306;28;20324;-82
2021/06/17 11:59:19;;;;;;;2.47;1.38;;;27.40;65.50;;;;;;5113208;27;20189;-82
2021/06/17 12:02:04;;;;;;;2.20;1.50;;;27.70;67.30;;;;;;5110747;28;20162;-82
2021/06/17 12:07:33;;;;;;;3.33;1.10;;;27.60;57.90;;;;;;5111391;28;20216;-82
2021/06/17 12:10:11;;;;;;;3.80;1.67;;;27.10;68.30;;;;;;5112956;28;20655;-83
2021/06/17 12:12:44;;;;;;;4.13;1.40;;;27.30;65.40;;;;;;5111659;28;20574;-82
2021/06/17 12:15:10;;;;;;;4.13;1.30;;;28.00;66.00;;;;;;5110780;28;20166;-82
2021/06/17 12:17:51;;;;;;;4.57;1.55;;;27.50;56.90;;;;;;5112799;28;20185;-83
2021/06/17 12:20:25;;;;;;;3.47;1.52;;;28.00;59.90;;;;;;5112076;28;20196;-83
2021/06/17 12:22:57;;;;;;;3.28;1.30;;;27.60;57.60;;;;;;5110787;28;20177;-83
2021/06/17 12:25:24;;;;;;;3.72;1.42;;;27.70;58.20;;;;;;5112880;28;20181;-82
2021/06/17 12:27:51;;;;;;;2.85;1.65;;;;;;;;;;5110911;28;20574;-83
2021/06/17 12:30:44;;;;;;;4.25;1.40;;;27.80;65.90;;;;;;5113504;28;20202;-82
2021/06/17 12:33:16;;;;;;;3.92;1.50;;;28.20;69.10;;;;;;5113413;28;20169;-82
2021/06/17 12:35:54;;;;;;;1.73;1.50;;;28.20;70.20;;;;;;5111468;28;20186;-83
2021/06/17 12:38:38;;;;;;;4.97;1.80;;;27.70;58.40;;;;;;5092800;28;20554;-83
2021/06/17 12:41:23;;;;;;;3.17;1.45;;;27.70;58.40;;;;;;5091408;28;20543;-82
2021/06/17 12:43:51;;;;;;;3.97;1.77;;;27.20;59.60;;;;;;5112287;28;20178;-82
2021/06/17 12:46:32;;;;;;;6.10;1.60;;;27.20;59.00;;;;;;5112355;28;20181;-82
2021/06/17 12:54:22;;;;;;;3.10;1.80;;;27.60;63.90;;;;;;5112290;28;20173;-83
2021/06/17 12:56:57;;;;;;;8.07;1.70;;;27.20;69.40;;;;;;5112456;28;20197;-83
2021/06/17 12:59:31;;;;;;;2.45;1.70;;;27.80;60.10;;;;;;5111853;28;20161;-83
2021/06/17 13:01:57;;;;;;;4.90;2.00;;;;;;;;;;5109436;28;20199;-83
2021/06/17 13:04:23;;;;;;;2.28;1.30;;;;;;;;;;5112523;28;20627;-82
2021/06/17 13:06:49;;;;;;;3.85;1.50;;;;;;;;;;5112551;28;20180;-82
2021/06/17 13:09:29;;;;;;;3.42;1.60;;;27.60;55.40;;;;;;5110684;28;20217;-81
2021/06/17 13:12:18;;;;;;;3.70;1.30;;;27.30;66.40;;;;;;5092617;28;20159;-81
2021/06/17 13:15:06;;;;;;;7.70;1.40;;;28.00;57.20;;;;;;5091701;28;20166;-82
2021/06/17 13:17:46;;;;;;;5.20;1.70;;;27.90;66.30;;;;;;5091282;28;20178;-82
2021/06/17 13:20:17;;;;;;;6.65;2.00;;;27.40;64.30;;;;;;5090498;28;20173;-82
2021/06/17 13:22:52;;;;;;;5.25;1.42;;;27.80;63.80;;;;;;5089760;28;20170;-82
2021/06/17 13:25:22;;;;;;;5.20;1.50;;;28.10;66.30;;;;;;5091853;28;20198;-82
2021/06/17 13:27:49;;;;;;;6.05;1.70;;;27.80;60.60;;;;;;5092656;28;20191;-82
2021/06/17 13:30:23;;;;;;;3.85;1.60;;;27.60;59.40;;;;;;5093926;28;20643;-82
2021/06/17 13:32:49;;;;;;;4.22;1.50;;;27.50;62.70;;;;;;5095947;28;20212;-82
2021/06/17 13:35:15;;;;;;;3.05;1.90;;;;;;;;;;5096021;28;20187;-82
2021/06/17 13:37:41;;;;;;;2.70;1.77;;;;;;;;;;5096420;28;20197;-82